Main page
METAR-TAF:

METAR-TAF

Airports :

Humberside Airport

Humberside, England

latitude: 53-35N, longitude: 000-21W, elevation: 31 m

Current weather observation

The report was made 27 minutes ago, at 21:50 UTC
Wind 6 kt from the West/Southwest
Temperature 1°C
Humidity 100%
Pressure 996 hPa
Visibility: 3000 m
Scattered clouds at a height of 300 ft
Broken clouds at a height of 2300 ft
mist

METAR: EGNJ 222150Z 24006KT 3000 BR SCT003 BKN023 01/01 Q0996

Time: 22:17 (22:17 UTC)

Forecast

The report was made 2 hours and 16 minutes ago, at 20:01 UTC
Forecast valid from 22 at 21 UTC to 23 at 06 UTC
Wind 4 kt from the West
Visibility 10 km or more
Scattered clouds at a height of 1500 ft
Temporary
from 22 at 21 UTC to 22 at 23 UTC
Visibility: 2000 m
Broken clouds at a height of 200 ft
rain showers, snow

TAF: EGNJ 222001Z 2221/2306 28004KT 9999 SCT015 TEMPO 2221/2223 2000 SHRASN BKN002

Weather observations and forecasts of more than 4000 airports (METAR and TAF reports).

The available stations are represented by yellow and red dots on the map.

Hover mouse over dot to see the name of the station.

Then click to see weather observations and forecasts.

To change the map : click on the green buttons with a black cross to zoom in, on the green button with a dash to zoom out, or on the green arrows for adjacent maps.


METAR-TAF: